Time;durP1;ratioP1;P1;durP2;ratioP2;P2;SDS_P1;SDS_P2;PMS_P1;PMS_P2;Temp;Humidity;BMP_temperature;BMP_pressure;BME280_temperature;BME280_humidity;BME280_pressure;Samples;Min_cycle;Max_cycle;Signal;HPM_P1;HPM_P2
2022/04/20 00:02:19;;;;;;;9.52;4.70;;;;;;;;;;5031787;28;20095;-78
2022/04/20 00:04:45;;;;;;;11.13;5.20;;;;;;;;;;5032170;28;20045;-77
2022/04/20 00:07:12;;;;;;;10.93;4.85;;;;;;;;;;5032334;28;20068;-78
2022/04/20 00:09:38;;;;;;;10.13;4.65;;;;;;;;;;5032573;28;20059;-78
2022/04/20 00:12:04;;;;;;;11.50;4.68;;;;;;;;;;5031182;28;20060;-78
2022/04/20 00:14:30;;;;;;;12.35;5.47;;;;;;;;;;5031382;28;20038;-78
2022/04/20 00:16:56;;;;;;;11.10;4.85;;;;;;;;;;5033297;28;20055;-77
2022/04/20 00:19:22;;;;;;;16.55;5.53;;;;;;;;;;5032725;28;20046;-78
2022/04/20 00:21:48;;;;;;;11.32;4.63;;;;;;;;;;5032928;28;20049;-77
2022/04/20 00:24:15;;;;;;;11.60;5.07;;;;;;;;;;5032889;28;20050;-74
2022/04/20 00:26:41;;;;;;;12.65;5.32;;;;;;;;;;5033117;28;20042;-75
2022/04/20 00:29:07;;;;;;;12.10;4.70;;;;;;;;;;5033219;28;20054;-78
2022/04/20 00:31:33;;;;;;;11.38;5.88;;;;;;;;;;5032757;28;20155;-78
2022/04/20 00:33:59;;;;;;;15.27;4.95;;;;;;;;;;5031625;28;20050;-78
2022/04/20 00:36:25;;;;;;;11.38;5.00;;;;;;;;;;5032570;28;20087;-73
2022/04/20 00:38:51;;;;;;;12.40;5.55;;;;;;;;;;5032686;28;20107;-79
2022/04/20 00:41:17;;;;;;;13.35;5.00;;;;;;;;;;5032506;28;20045;-77
2022/04/20 00:43:43;;;;;;;11.88;5.15;;;;;;;;;;5032647;28;20132;-78
2022/04/20 00:46:09;;;;;;;15.57;4.88;;;;;;;;;;5032537;28;20132;-78
2022/04/20 00:48:38;;;;;;;10.60;4.93;;;;;;;;;;5031422;28;20112;-78
2022/04/20 00:51:04;;;;;;;11.30;4.95;;;;;;;;;;5018688;28;20075;-75
2022/04/20 00:53:30;;;;;;;11.15;5.20;;;;;;;;;;5035993;28;20060;-78
2022/04/20 00:55:56;;;;;;;11.32;4.80;;;;;;;;;;5018477;28;20049;-78
2022/04/20 00:58:22;;;;;;;12.32;5.78;;;;;;;;;;5035937;28;20038;-77
2022/04/20 01:00:48;;;;;;;12.55;5.43;;;;;;;;;;5036096;28;20072;-79
2022/04/20 01:03:14;;;;;;;13.05;5.28;;;;;;;;;;5035895;28;20090;-77
2022/04/20 01:05:40;;;;;;;12.40;5.25;;;;;;;;;;5034926;28;20081;-78
2022/04/20 01:08:06;;;;;;;10.25;4.80;;;;;;;;;;5035962;28;20041;-78
2022/04/20 01:10:32;;;;;;;11.02;5.38;;;;;;;;;;5035904;28;20501;-76
2022/04/20 01:12:58;;;;;;;10.95;5.05;;;;;;;;;;5034754;28;20056;-75
2022/04/20 01:15:24;;;;;;;14.30;5.80;;;;;;;;;;5035656;28;20092;-77
2022/04/20 01:17:50;;;;;;;11.13;5.70;;;;;;;;;;5035660;28;20037;-76
2022/04/20 01:20:18;;;;;;;14.18;5.50;;;;;;;;;;5035722;28;20053;-78
2022/04/20 01:22:44;;;;;;;11.55;5.75;;;;;;;;;;5036535;28;20436;-75
2022/04/20 01:25:10;;;;;;;10.50;5.18;;;;;;;;;;5035630;28;20053;-78
2022/04/20 01:27:37;;;;;;;12.68;5.40;;;;;;;;;;5035585;28;20064;-77
2022/04/20 01:30:04;;;;;;;11.50;5.82;;;;;;;;;;5035493;28;20053;-77
2022/04/20 01:32:30;;;;;;;12.57;5.55;;;;;;;;;;5034348;28;20045;-77
2022/04/20 01:34:56;;;;;;;13.02;6.00;;;;;;;;;;5035681;28;20107;-78
2022/04/20 01:37:22;;;;;;;11.02;5.32;;;;;;;;;;5034908;28;20077;-77
2022/04/20 01:39:48;;;;;;;13.07;5.90;;;;;;;;;;5035879;28;20440;-78
2022/04/20 01:42:14;;;;;;;12.57;5.93;;;;;;;;;;5033966;28;20524;-78
2022/04/20 01:44:40;;;;;;;12.40;5.80;;;;;;;;;;5035186;28;20421;-78
2022/04/20 01:47:07;;;;;;;15.40;5.82;;;;;;;;;;5034029;28;20087;-78
2022/04/20 01:49:33;;;;;;;13.00;6.07;;;;;;;;;;5033986;28;20053;-78
2022/04/20 01:51:59;;;;;;;12.90;6.47;;;;;;;;;;5034140;28;20053;-78
2022/04/20 01:54:25;;;;;;;12.02;6.10;;;;;;;;;;5035014;28;20100;-77
2022/04/20 01:56:52;;;;;;;13.43;5.82;;;;;;;;;;5034330;28;20045;-78
2022/04/20 01:59:18;;;;;;;12.57;6.07;;;;;;;;;;5033813;28;20089;-77
2022/04/20 02:04:29;;;;;;;11.75;6.10;;;;;;;;;;5034787;28;20049;-78
2022/04/20 02:06:56;;;;;;;13.43;6.07;;;;;;;;;;5034073;28;20089;-78
2022/04/20 02:09:24;;;;;;;11.70;6.40;;;;;;;;;;5035433;28;20119;-78
2022/04/20 02:11:50;;;;;;;12.38;6.03;;;;;;;;;;5033769;28;20053;-78
2022/04/20 02:14:16;;;;;;;13.15;5.72;;;;;;;;;;5033652;28;20053;-78
2022/04/20 02:16:42;;;;;;;15.32;5.93;;;;;;;;;;5035175;28;20045;-77
2022/04/20 02:19:08;;;;;;;17.23;6.05;;;;;;;;;;5034631;28;20132;-78
2022/04/20 02:21:34;;;;;;;11.63;6.28;;;;;;;;;;5034457;28;20053;-78
2022/04/20 02:24:00;;;;;;;12.68;6.07;;;;;;;;;;5034545;28;20099;-78
2022/04/20 02:26:26;;;;;;;12.90;5.72;;;;;;;;;;5033167;28;20099;-77
2022/04/20 02:28:52;;;;;;;14.32;6.50;;;;;;;;;;5035048;28;20049;-77
2022/04/20 02:31:18;;;;;;;14.00;6.18;;;;;;;;;;5034388;28;20053;-78
2022/04/20 02:33:44;;;;;;;11.77;6.05;;;;;;;;;;5033042;28;20084;-78
2022/04/20 02:36:11;;;;;;;12.98;6.18;;;;;;;;;;5033363;28;20085;-78
2022/04/20 02:38:37;;;;;;;15.15;6.45;;;;;;;;;;5033955;28;20075;-78
2022/04/20 02:41:03;;;;;;;13.05;6.25;;;;;;;;;;5032819;28;20049;-77
2022/04/20 02:43:29;;;;;;;13.48;6.20;;;;;;;;;;5034584;28;20469;-78
2022/04/20 02:45:56;;;;;;;12.55;6.18;;;;;;;;;;5033998;28;20132;-79
2022/04/20 02:48:22;;;;;;;13.07;6.43;;;;;;;;;;5034580;28;20384;-77
2022/04/20 02:50:48;;;;;;;14.63;6.20;;;;;;;;;;5032841;28;20077;-77
2022/04/20 02:53:14;;;;;;;12.77;6.30;;;;;;;;;;5033777;28;20049;-77
2022/04/20 02:55:42;;;;;;;13.88;6.60;;;;;;;;;;5033732;28;20045;-77
2022/04/20 02:58:08;;;;;;;13.23;6.50;;;;;;;;;;5034132;28;20050;-78
2022/04/20 03:00:35;;;;;;;12.40;6.18;;;;;;;;;;5016211;28;20049;-78
2022/04/20 03:03:01;;;;;;;13.73;6.32;;;;;;;;;;5032949;28;20050;-76
2022/04/20 03:05:27;;;;;;;11.88;6.05;;;;;;;;;;5033971;28;20127;-77
2022/04/20 03:07:53;;;;;;;12.18;6.60;;;;;;;;;;5032507;28;20037;-78
2022/04/20 03:10:19;;;;;;;11.50;6.22;;;;;;;;;;5032353;28;20041;-78
2022/04/20 03:12:45;;;;;;;12.10;6.03;;;;;;;;;;5033411;28;20416;-77
2022/04/20 03:15:11;;;;;;;12.35;6.55;;;;;;;;;;5033566;28;20092;-78
2022/04/20 03:17:37;;;;;;;12.93;6.07;;;;;;;;;;5015852;28;20130;-78
2022/04/20 03:20:04;;;;;;;12.82;6.07;;;;;;;;;;5033476;28;20052;-78
2022/04/20 03:22:30;;;;;;;11.93;6.38;;;;;;;;;;5033382;28;20053;-77
2022/04/20 03:24:56;;;;;;;12.52;6.47;;;;;;;;;;5032325;28;20136;-78
2022/04/20 03:27:22;;;;;;;11.80;6.25;;;;;;;;;;5032035;28;20053;-78
2022/04/20 03:29:48;;;;;;;11.93;6.07;;;;;;;;;;5033232;28;20104;-78
2022/04/20 03:32:15;;;;;;;13.80;6.18;;;;;;;;;;5033340;28;20128;-78
2022/04/20 03:34:42;;;;;;;12.38;6.95;;;;;;;;;;5032084;28;20049;-78
2022/04/20 03:37:07;;;;;;;;;;;;;;;;;;5033620;28;20041;-76
2022/04/20 03:39:34;;;;;;;13.23;6.70;;;;;;;;;;5033996;28;19921;-77
2022/04/20 03:42:00;;;;;;;;;;;;;;;;;;5033653;28;20095;-79
2022/04/20 03:44:29;;;;;;;14.35;6.32;;;;;;;;;;5033262;28;19921;-77
2022/04/20 03:46:55;;;;;;;11.70;6.05;;;;;;;;;;5033170;28;20038;-77
2022/04/20 03:49:21;;;;;;;12.05;6.43;;;;;;;;;;5032052;28;20045;-79
2022/04/20 03:51:47;;;;;;;14.77;6.70;;;;;;;;;;5033089;28;20057;-77
2022/04/20 03:54:14;;;;;;;13.85;6.40;;;;;;;;;;5033149;28;20041;-78
2022/04/20 03:59:25;;;;;;;13.27;6.68;;;;;;;;;;5033117;28;19947;-78
2022/04/20 04:01:51;;;;;;;14.82;7.18;;;;;;;;;;5016419;28;20037;-77
2022/04/20 04:04:18;;;;;;;14.57;7.03;;;;;;;;;;5033665;28;20061;-78
2022/04/20 04:06:44;;;;;;;13.25;6.72;;;;;;;;;;5032221;28;20041;-78
2022/04/20 04:09:10;;;;;;;13.35;6.75;;;;;;;;;;5032021;28;20041;-77
2022/04/20 04:11:36;;;;;;;13.35;7.00;;;;;;;;;;5033396;28;20091;-76
2022/04/20 04:14:02;;;;;;;14.48;7.10;;;;;;;;;;5031257;28;20049;-79
2022/04/20 04:16:28;;;;;;;11.32;6.28;;;;;;;;;;5032033;28;20495;-78
2022/04/20 04:18:55;;;;;;;14.77;6.85;;;;;;;;;;5032478;28;20045;-78
2022/04/20 04:21:21;;;;;;;12.32;6.85;;;;;;;;;;5032160;28;20401;-78
2022/04/20 04:23:48;;;;;;;12.90;6.72;;;;;;;;;;5014506;28;20595;-78
2022/04/20 04:26:14;;;;;;;16.30;8.15;;;;;;;;;;5035374;28;20064;-78
2022/04/20 04:28:40;;;;;;;12.95;7.30;;;;;;;;;;5033469;28;20107;-77
2022/04/20 04:31:07;;;;;;;12.68;7.25;;;;;;;;;;5035099;28;20052;-77
2022/04/20 04:33:34;;;;;;;14.07;6.85;;;;;;;;;;5035068;28;20122;-78
2022/04/20 04:36:01;;;;;;;12.27;7.00;;;;;;;;;;5034319;28;20060;-78
2022/04/20 04:38:27;;;;;;;12.65;6.88;;;;;;;;;;5034752;28;20049;-78
2022/04/20 04:40:53;;;;;;;13.35;7.30;;;;;;;;;;5033085;28;20061;-78
2022/04/20 04:43:19;;;;;;;14.38;6.70;;;;;;;;;;5034346;28;20056;-78
2022/04/20 04:48:36;;;;;;;14.43;6.82;;;;;;;;;;5034416;28;20438;-78
2022/04/20 04:51:03;;;;;;;14.63;6.78;;;;;;;;;;5034269;28;20049;-78
2022/04/20 04:53:30;;;;;;;12.60;6.95;;;;;;;;;;5034481;28;20163;-78
2022/04/20 04:55:56;;;;;;;;;;;;;;;;;;5034331;28;20045;-77
2022/04/20 04:58:22;;;;;;;13.13;7.00;;;;;;;;;;5032605;28;19990;-78
2022/04/20 05:00:48;;;;;;;13.32;6.60;;;;;;;;;;5032560;28;20113;-78
2022/04/20 05:03:16;;;;;;;14.43;7.28;;;;;;;;;;5033864;28;20053;-77
2022/04/20 05:05:42;;;;;;;14.00;7.22;;;;;;;;;;5033832;28;20089;-77
2022/04/20 05:08:09;;;;;;;13.00;6.90;;;;;;;;;;5033729;28;20052;-78
2022/04/20 05:10:35;;;;;;;14.50;6.72;;;;;;;;;;5034440;28;20060;-78
2022/04/20 05:13:02;;;;;;;14.00;7.07;;;;;;;;;;5032751;28;20049;-77
2022/04/20 05:15:28;;;;;;;14.75;7.18;;;;;;;;;;5034197;28;20045;-77
2022/04/20 05:17:54;;;;;;;12.93;7.38;;;;;;;;;;5033250;28;20386;-77
2022/04/20 05:20:21;;;;;;;13.15;6.90;;;;;;;;;;5033465;28;20056;-77
2022/04/20 05:22:47;;;;;;;12.80;7.50;;;;;;;;;;5033409;28;20481;-78
2022/04/20 05:25:13;;;;;;;14.68;6.80;;;;;;;;;;5033443;28;20486;-77
2022/04/20 05:27:39;;;;;;;12.90;6.72;;;;;;;;;;5033371;28;20061;-78
2022/04/20 05:30:06;;;;;;;14.00;7.00;;;;;;;;;;5033211;28;20059;-77
2022/04/20 05:32:32;;;;;;;16.65;6.85;;;;;;;;;;5033425;28;20165;-78
2022/04/20 05:34:58;;;;;;;13.27;7.00;;;;;;;;;;5015239;28;20057;-77
2022/04/20 05:42:54;;;;;;;14.32;7.10;;;;;;;;;;5033206;28;20398;-77
2022/04/20 05:45:20;;;;;;;14.35;6.88;;;;;;;;;;5032649;28;20488;-77
2022/04/20 05:47:46;;;;;;;14.50;7.13;;;;;;;;;;5032869;28;20053;-77
2022/04/20 05:50:13;;;;;;;14.75;7.10;;;;;;;;;;5031712;28;20053;-77
2022/04/20 05:52:39;;;;;;;;;;;;;;;;;;5033199;28;20049;-77
2022/04/20 05:55:05;;;;;;;14.50;7.05;;;;;;;;;;5033289;28;19924;-73
2022/04/20 05:57:31;;;;;;;;;;;;;;;;;;5032820;28;20547;-75
2022/04/20 05:59:57;;;;;;;12.88;7.13;;;;;;;;;;5032764;28;19929;-73
2022/04/20 06:02:23;;;;;;;18.75;9.55;;;;;;;;;;5032399;28;20081;-73
2022/04/20 06:04:49;;;;;;;14.02;7.10;;;;;;;;;;5032415;28;20060;-71
2022/04/20 06:07:16;;;;;;;13.75;6.93;;;;;;;;;;5015548;28;20057;-72
2022/04/20 06:09:42;;;;;;;14.40;7.22;;;;;;;;;;5031701;28;20046;-69
2022/04/20 06:12:08;;;;;;;13.18;7.68;;;;;;;;;;5032511;28;20088;-72
2022/04/20 06:14:34;;;;;;;17.20;9.15;;;;;;;;;;5032490;28;20045;-69
2022/04/20 06:17:01;;;;;;;15.95;7.30;;;;;;;;;;5030900;28;20549;-71
2022/04/20 06:19:27;;;;;;;13.77;7.05;;;;;;;;;;5032625;28;20413;-73
2022/04/20 06:21:53;;;;;;;17.00;7.30;;;;;;;;;;5032934;28;20046;-70
2022/04/20 06:24:19;;;;;;;15.93;7.57;;;;;;;;;;5031050;28;20045;-72
2022/04/20 06:26:45;;;;;;;14.15;7.40;;;;;;;;;;5032359;28;20052;-72
2022/04/20 06:29:11;;;;;;;14.35;7.68;;;;;;;;;;5030825;28;20148;-71
2022/04/20 06:31:39;;;;;;;12.80;7.00;;;;;;;;;;5031494;28;20061;-73
2022/04/20 06:34:05;;;;;;;15.57;7.57;;;;;;;;;;5030683;28;20099;-69
2022/04/20 06:36:31;;;;;;;49.95;12.60;;;;;;;;;;5032146;28;20045;-70
2022/04/20 06:38:57;;;;;;;18.55;7.70;;;;;;;;;;5032503;28;20428;-71
2022/04/20 06:41:24;;;;;;;13.68;6.68;;;;;;;;;;5030973;28;20045;-72
2022/04/20 06:43:50;;;;;;;16.98;7.20;;;;;;;;;;5031864;28;20053;-73
2022/04/20 06:46:16;;;;;;;12.38;6.72;;;;;;;;;;5030492;28;20049;-72
2022/04/20 06:48:42;;;;;;;12.25;6.78;;;;;;;;;;5032011;28;20041;-71
2022/04/20 06:51:08;;;;;;;15.60;7.10;;;;;;;;;;5032011;28;20100;-70
2022/04/20 06:59:04;;;;;;;13.93;6.47;;;;;;;;;;5031525;28;20462;-71
2022/04/20 07:01:30;;;;;;;15.95;7.60;;;;;;;;;;5031472;28;20048;-76
2022/04/20 07:03:58;;;;;;;12.55;6.88;;;;;;;;;;5031967;28;20050;-71
2022/04/20 07:06:24;;;;;;;13.20;7.10;;;;;;;;;;5031726;28;20049;-74
2022/04/20 07:08:50;;;;;;;15.07;8.35;;;;;;;;;;5031525;28;20099;-68
2022/04/20 07:11:16;;;;;;;13.40;6.93;;;;;;;;;;5031842;28;20045;-80
2022/04/20 07:13:42;;;;;;;16.70;7.75;;;;;;;;;;5031856;28;20123;-75
2022/04/20 07:16:08;;;;;;;14.70;6.75;;;;;;;;;;5031478;28;20057;-80
2022/04/20 07:18:35;;;;;;;12.65;6.78;;;;;;;;;;5031552;28;20108;-78
2022/04/20 07:21:02;;;;;;;15.43;8.13;;;;;;;;;;5031503;28;20413;-77
2022/04/20 07:23:28;;;;;;;16.17;7.57;;;;;;;;;;5031331;28;20053;-75
2022/04/20 07:25:54;;;;;;;12.77;7.00;;;;;;;;;;5029921;28;20096;-77
2022/04/20 07:28:20;;;;;;;13.35;6.68;;;;;;;;;;5013019;28;20065;-72
2022/04/20 07:30:46;;;;;;;14.68;6.85;;;;;;;;;;5030038;28;20053;-68
2022/04/20 07:33:16;;;;;;;14.07;6.55;;;;;;;;;;5031114;28;20133;-69
2022/04/20 07:35:45;;;;;;;15.15;6.07;;;;;;;;;;5030789;28;20045;-70
2022/04/20 07:38:11;;;;;;;16.08;6.07;;;;;;;;;;5030622;28;20047;-70
2022/04/20 07:40:37;;;;;;;13.23;5.55;;;;;;;;;;5031366;28;20065;-74
2022/04/20 07:43:03;;;;;;;10.57;5.90;;;;;;;;;;5029527;28;20497;-73
2022/04/20 07:45:29;;;;;;;12.77;6.13;;;;;;;;;;5030934;28;20061;-72
2022/04/20 07:47:56;;;;;;;15.57;5.68;;;;;;;;;;5029971;28;20045;-69
2022/04/20 07:50:24;;;;;;;13.15;5.28;;;;;;;;;;5030539;28;20046;-73
2022/04/20 07:52:57;;;;;;;14.40;4.97;;;;;;;;;;5030675;28;20051;-73
2022/04/20 07:55:26;;;;;;;13.02;5.15;;;;;;;;;;5031105;28;20084;-72
2022/04/20 07:57:54;;;;;;;12.65;5.68;;;;;;;;;;5030854;28;20045;-71
2022/04/20 08:00:22;;;;;;;12.10;5.55;;;;;;;;;;5035013;28;20052;-72
2022/04/20 08:02:48;;;;;;;10.45;4.68;;;;;;;;;;5034861;28;20182;-73
2022/04/20 08:05:15;;;;;;;12.32;5.50;;;;;;;;;;5034310;28;20049;-71
2022/04/20 08:07:42;;;;;;;13.35;5.13;;;;;;;;;;5034740;28;20045;-72
2022/04/20 08:10:09;;;;;;;11.93;4.82;;;;;;;;;;5033318;28;20100;-74
2022/04/20 08:12:45;;;;;;;14.20;4.72;;;;;;;;;;5034946;28;20081;-70
2022/04/20 08:15:11;;;;;;;13.63;5.03;;;;;;;;;;5035004;28;20046;-67
2022/04/20 08:17:38;;;;;;;15.27;5.13;;;;;;;;;;5016811;28;20227;-77
2022/04/20 08:20:05;;;;;;;12.65;4.40;;;;;;;;;;5033688;28;20053;-71
2022/04/20 08:22:32;;;;;;;18.30;4.60;;;;;;;;;;5034219;28;20489;-70
2022/04/20 08:24:59;;;;;;;9.63;4.07;;;;;;;;;;5034502;28;20072;-69
2022/04/20 08:27:25;;;;;;;11.07;4.18;;;;;;;;;;5034660;28;20421;-68
2022/04/20 08:29:51;;;;;;;13.60;4.55;;;;;;;;;;5034220;28;20057;-64
2022/04/20 08:32:18;;;;;;;27.83;5.65;;;;;;;;;;5034118;28;20053;-65
2022/04/20 08:34:45;;;;;;;10.35;4.00;;;;;;;;;;5033901;28;20042;-71
2022/04/20 08:37:11;;;;;;;9.57;3.75;;;;;;;;;;5016576;28;20103;-68
2022/04/20 08:39:41;;;;;;;34.17;4.78;;;;;;;;;;5034061;28;20493;-67
2022/04/20 08:42:07;;;;;;;13.90;3.72;;;;;;;;;;5034433;28;20395;-68
2022/04/20 08:44:36;;;;;;;11.10;3.38;;;;;;;;;;5034537;28;20050;-74
2022/04/20 08:47:02;;;;;;;9.85;3.33;;;;;;;;;;5032901;28;20077;-69
2022/04/20 08:49:29;;;;;;;10.68;3.45;;;;;;;;;;5034040;28;20056;-67
2022/04/20 08:54:40;;;;;;;8.73;3.03;;;;;;;;;;5034017;28;20108;-73
2022/04/20 08:57:15;;;;;;;;;;;;;;;;;;5034116;28;20081;-75
2022/04/20 08:59:42;;;;;;;9.25;3.22;;;;;;;;;;5034319;28;19921;-73
2022/04/20 09:02:10;;;;;;;8.98;3.67;;;;;;;;;;5034076;28;20056;-69
2022/04/20 09:04:36;;;;;;;8.88;3.42;;;;;;;;;;5015845;28;20053;-67
2022/04/20 09:07:03;;;;;;;12.23;4.00;;;;;;;;;;5032639;28;20502;-63
2022/04/20 09:09:30;;;;;;;7.97;3.20;;;;;;;;;;5016099;28;20445;-66
2022/04/20 09:11:57;;;;;;;12.05;3.33;;;;;;;;;;5015435;28;20537;-68
2022/04/20 09:14:24;;;;;;;9.57;3.38;;;;;;;;;;5033509;28;20485;-68
2022/04/20 09:16:54;;;;;;;10.68;3.35;;;;;;;;;;5033093;28;20045;-68
2022/04/20 09:19:27;;;;;;;7.05;2.97;;;;;;;;;;5031862;28;20041;-66
2022/04/20 09:21:54;;;;;;;9.57;3.25;;;;;;;;;;5033113;28;20050;-69
2022/04/20 09:24:21;;;;;;;14.07;3.70;;;;;;;;;;5033373;28;20050;-66
2022/04/20 09:26:54;;;;;;;9.10;3.25;;;;;;;;;;5033400;28;20060;-69
2022/04/20 09:29:21;;;;;;;9.13;3.22;;;;;;;;;;5032383;28;20366;-68
2022/04/20 09:31:51;;;;;;;9.02;3.30;;;;;;;;;;5031755;28;20050;-68
2022/04/20 09:34:26;;;;;;;7.88;3.15;;;;;;;;;;5032529;28;20050;-67
2022/04/20 09:36:54;;;;;;;10.60;3.65;;;;;;;;;;5033355;28;20136;-67
2022/04/20 09:39:21;;;;;;;9.43;3.47;;;;;;;;;;5033020;28;20129;-69
2022/04/20 09:42:00;;;;;;;8.38;3.10;;;;;;;;;;5031514;28;20108;-64
2022/04/20 09:44:27;;;;;;;10.00;3.30;;;;;;;;;;5033332;28;20148;-66
2022/04/20 09:49:58;;;;;;;8.60;3.15;;;;;;;;;;5032631;28;20155;-67
2022/04/20 09:52:35;;;;;;;9.43;3.60;;;;;;;;;;5033014;28;20128;-67
2022/04/20 09:55:01;;;;;;;20.05;4.18;;;;;;;;;;5032437;28;20057;-68
2022/04/20 09:57:31;;;;;;;9.20;3.47;;;;;;;;;;5031068;28;20203;-68
2022/04/20 10:00:10;;;;;;;10.30;3.40;;;;;;;;;;5032351;28;20493;-66
2022/04/20 10:02:47;;;;;;;9.02;3.20;;;;;;;;;;5030981;28;20045;-65
2022/04/20 10:05:13;;;;;;;;;;;;;;;;;;5031472;28;20085;-67
2022/04/20 10:07:39;;;;;;;8.65;3.20;;;;;;;;;;5031140;28;20403;-71
2022/04/20 10:10:05;;;;;;;;;;;;;;;;;;5031432;28;20045;-69
2022/04/20 10:12:32;;;;;;;13.88;3.60;;;;;;;;;;5032659;28;19921;-70
2022/04/20 10:17:46;;;;;;;10.23;3.25;;;;;;;;;;5031906;28;20076;-73
2022/04/20 10:20:12;;;;;;;9.30;3.20;;;;;;;;;;5031624;28;20048;-70
2022/04/20 10:22:39;;;;;;;11.48;3.90;;;;;;;;;;5031412;28;20374;-65
2022/04/20 10:25:06;;;;;;;9.52;3.75;;;;;;;;;;5032119;28;20049;-66
2022/04/20 10:27:43;;;;;;;7.82;3.13;;;;;;;;;;5030186;28;20061;-67
2022/04/20 10:30:16;;;;;;;9.43;3.10;;;;;;;;;;5031859;28;20065;-67
2022/04/20 10:33:02;;;;;;;9.85;2.90;;;;;;;;;;5032554;28;20154;-67
2022/04/20 10:35:28;;;;;;;10.05;3.28;;;;;;;;;;5031734;28;20058;-65
2022/04/20 10:38:11;;;;;;;9.93;2.88;;;;;;;;;;5031945;28;20045;-69
2022/04/20 10:41:06;;;;;;;8.32;2.70;;;;;;;;;;5032156;28;20048;-67
2022/04/20 10:43:34;;;;;;;9.02;2.80;;;;;;;;;;5018920;28;20076;-66
2022/04/20 10:46:05;;;;;;;7.38;2.60;;;;;;;;;;5030674;28;20046;-67
2022/04/20 10:48:51;;;;;;;8.35;3.00;;;;;;;;;;5031508;28;20500;-68
2022/04/20 10:51:18;;;;;;;11.32;2.80;;;;;;;;;;5030403;28;20054;-72
2022/04/20 10:53:44;;;;;;;;;;;;;;;;;;5030789;28;20128;-67
2022/04/20 10:56:10;;;;;;;9.27;2.65;;;;;;;;;;5031499;28;20330;-65
2022/04/20 10:58:37;;;;;;;8.50;2.92;;;;;;;;;;5030985;28;20041;-66
2022/04/20 11:01:11;;;;;;;11.27;3.20;;;;;;;;;;5030060;28;20405;-68
2022/04/20 11:04:07;;;;;;;8.82;2.67;;;;;;;;;;5031342;28;20053;-73
2022/04/20 11:06:51;;;;;;;8.68;2.60;;;;;;;;;;5031660;28;20049;-65
2022/04/20 11:09:36;;;;;;;6.18;2.40;;;;;;;;;;5031022;28;20141;-67
2022/04/20 11:20:58;;;;;;;8.00;2.58;;;;;;;;;;5029440;28;20065;-64
2022/04/20 11:23:44;;;;;;;6.82;2.30;;;;;;;;;;5031010;28;20056;-67
2022/04/20 11:26:14;;;;;;;6.65;2.40;;;;;;;;;;5030645;28;20127;-66
2022/04/20 11:28:41;;;;;;;6.38;2.17;;;;;;;;;;5030617;28;20076;-69
2022/04/20 11:31:07;;;;;;;7.60;2.30;;;;;;;;;;5029593;28;20049;-71
2022/04/20 11:33:34;;;;;;;7.50;2.35;;;;;;;;;;5030418;28;20052;-73
2022/04/20 11:36:00;;;;;;;6.35;2.30;;;;;;;;;;5030171;28;20389;-75
2022/04/20 11:38:46;;;;;;;51.90;8.38;;;;;;;;;;5012924;28;20152;-78
2022/04/20 11:41:13;;;;;;;7.57;2.40;;;;;;;;;;5030346;28;20497;-78
2022/04/20 11:43:40;;;;;;;10.10;2.63;;;;;;;;;;5030627;28;20045;-79
2022/04/20 11:46:07;;;;;;;5.50;2.30;;;;;;;;;;5030829;28;20117;-73
2022/04/20 11:48:35;;;;;;;6.20;2.40;;;;;;;;;;5030682;28;20050;-69
2022/04/20 11:51:02;;;;;;;7.55;2.28;;;;;;;;;;5013237;28;20068;-69
2022/04/20 11:53:34;;;;;;;6.05;2.45;;;;;;;;;;5030548;28;20177;-67
2022/04/20 11:56:01;;;;;;;9.23;2.15;;;;;;;;;;5030631;28;20049;-68
2022/04/20 11:58:27;;;;;;;14.10;2.33;;;;;;;;;;5030382;28;20481;-71
2022/04/20 12:00:53;;;;;;;;;;;;;;;;;;5030989;28;20060;-68
2022/04/20 12:03:19;;;;;;;14.60;2.75;;;;;;;;;;5030765;28;20265;-78
2022/04/20 12:05:46;;;;;;;9.40;2.30;;;;;;;;;;5030465;28;20136;-76
2022/04/20 12:08:12;;;;;;;13.07;2.17;;;;;;;;;;5030521;28;20065;-71
2022/04/20 12:10:39;;;;;;;7.63;2.40;;;;;;;;;;5030923;28;20136;-71
2022/04/20 12:13:07;;;;;;;5.18;2.17;;;;;;;;;;5029131;28;20049;-68
2022/04/20 12:15:33;;;;;;;8.98;2.20;;;;;;;;;;5030214;28;20041;-67
2022/04/20 12:18:00;;;;;;;9.48;2.60;;;;;;;;;;5030181;28;20037;-74
2022/04/20 12:20:27;;;;;;;7.57;2.15;;;;;;;;;;5030442;28;20052;-75
2022/04/20 12:23:06;;;;;;;5.72;2.00;;;;;;;;;;5029556;28;20045;-72
2022/04/20 12:25:32;;;;;;;11.88;2.50;;;;;;;;;;5030189;28;20132;-80
2022/04/20 12:28:35;;;;;;;6.18;2.10;;;;;;;;;;5029692;28;20116;-70
2022/04/20 12:30:45;;;;;;;7.25;2.38;;;;;;;;;;5029552;28;20050;-69
2022/04/20 12:33:23;;;;;;;4.63;2.03;;;;;;;;;;5030410;28;20053;-69
2022/04/20 12:36:00;;;;;;;8.05;2.80;;;;;;;;;;5028723;28;20458;-71
2022/04/20 12:38:26;;;;;;;9.02;2.50;;;;;;;;;;5028409;28;20045;-68
2022/04/20 12:40:53;;;;;;;16.02;3.25;;;;;;;;;;5029968;28;20048;-70
2022/04/20 12:43:19;;;;;;;;;;;;;;;;;;5013743;28;20053;-68
2022/04/20 12:45:45;;;;;;;7.70;2.25;;;;;;;;;;5031707;28;20384;-71
2022/04/20 12:48:11;;;;;;;6.57;2.42;;;;;;;;;;5034253;28;20125;-72
2022/04/20 12:50:38;;;;;;;8.40;2.67;;;;;;;;;;5033873;28;20058;-70
2022/04/20 12:53:04;;;;;;;12.90;2.67;;;;;;;;;;5033851;28;20046;-67
2022/04/20 12:55:41;;;;;;;7.05;2.47;;;;;;;;;;5032374;28;20046;-69
2022/04/20 13:03:41;;;;;;;16.67;3.10;;;;;;;;;;5033343;28;20497;-69
2022/04/20 13:06:07;;;;;;;;;;;;;;;;;;5033756;28;20055;-70
2022/04/20 13:08:33;;;;;;;7.78;2.63;;;;;;;;;;5033159;28;19921;-70
2022/04/20 13:10:59;;;;;;;;;;;;;;;;;;5032410;28;20049;-67
2022/04/20 13:13:26;;;;;;;7.47;2.83;;;;;;;;;;5033367;28;19921;-70
2022/04/20 13:15:52;;;;;;;7.22;2.80;;;;;;;;;;5033153;28;20057;-67
2022/04/20 13:18:18;;;;;;;8.95;3.10;;;;;;;;;;5032003;28;20042;-68
2022/04/20 13:20:45;;;;;;;13.80;4.20;;;;;;;;;;5032996;28;20045;-68
2022/04/20 13:23:11;;;;;;;11.18;4.40;;;;;;;;;;5033092;28;20053;-69
2022/04/20 13:28:22;;;;;;;11.35;4.88;;;;;;;;;;5033108;28;20488;-68
2022/04/20 13:30:49;;;;;;;14.00;5.32;;;;;;;;;;5032002;28;20095;-68
2022/04/20 13:33:16;;;;;;;13.65;5.03;;;;;;;;;;5032316;28;20057;-69
2022/04/20 13:35:43;;;;;;;14.63;5.13;;;;;;;;;;5031380;28;20049;-68
2022/04/20 13:38:10;;;;;;;10.93;4.55;;;;;;;;;;5033746;28;20045;-66
2022/04/20 13:40:38;;;;;;;9.32;3.92;;;;;;;;;;5032796;28;20148;-68
2022/04/20 13:43:04;;;;;;;13.57;5.22;;;;;;;;;;5032755;28;20057;-66
2022/04/20 13:45:30;;;;;;;;;;;;;;;;;;5032575;28;20517;-68
2022/04/20 13:47:56;;;;;;;11.75;4.90;;;;;;;;;;5032469;28;20008;-68
2022/04/20 13:50:23;;;;;;;11.63;5.20;;;;;;;;;;5031227;28;20049;-71
2022/04/20 13:52:49;;;;;;;14.18;5.25;;;;;;;;;;5032623;28;20151;-69
2022/04/20 13:55:16;;;;;;;14.88;4.97;;;;;;;;;;5033108;28;20056;-69
2022/04/20 13:57:42;;;;;;;;;;;;;;;;;;5032393;28;20524;-70
2022/04/20 14:00:09;;;;;;;16.65;5.57;;;;;;;;;;5030823;28;19921;-67
2022/04/20 14:02:35;;;;;;;14.23;5.65;;;;;;;;;;5032364;28;20045;-68
2022/04/20 14:05:02;;;;;;;14.10;6.00;;;;;;;;;;5032687;28;20044;-69
2022/04/20 14:07:27;;;;;;;;;;;;;;;;;;5032732;28;20052;-68
2022/04/20 14:09:54;;;;;;;14.90;6.35;;;;;;;;;;5031054;28;19925;-68
2022/04/20 14:12:22;;;;;;;11.45;5.75;;;;;;;;;;5030909;28;20049;-69
2022/04/20 14:14:48;;;;;;;18.10;6.35;;;;;;;;;;5031662;28;20425;-68
2022/04/20 14:17:16;;;;;;;13.95;6.40;;;;;;;;;;5030871;28;20045;-67
2022/04/20 14:19:44;;;;;;;12.93;6.00;;;;;;;;;;5032351;28;20061;-69
2022/04/20 14:22:14;;;;;;;14.95;6.25;;;;;;;;;;5032052;28;20049;-69
2022/04/20 14:24:46;;;;;;;13.45;6.00;;;;;;;;;;5031008;28;20112;-67
2022/04/20 14:32:43;;;;;;;14.57;6.82;;;;;;;;;;5032549;28;20197;-69
2022/04/20 14:35:10;;;;;;;15.35;7.50;;;;;;;;;;5030422;28;20057;-67
2022/04/20 14:37:37;;;;;;;13.43;6.85;;;;;;;;;;5031270;28;20045;-69
2022/04/20 14:40:03;;;;;;;13.70;7.10;;;;;;;;;;5013865;28;20136;-70
2022/04/20 14:42:29;;;;;;;14.70;7.10;;;;;;;;;;5031859;28;20045;-78
2022/04/20 14:44:55;;;;;;;14.50;7.53;;;;;;;;;;5013988;28;20049;-70
2022/04/20 14:47:21;;;;;;;14.40;7.32;;;;;;;;;;5030390;28;20444;-70
2022/04/20 14:49:47;;;;;;;14.73;7.03;;;;;;;;;;5030334;28;20436;-70
2022/04/20 14:52:16;;;;;;;15.18;7.57;;;;;;;;;;5031258;28;20080;-70
2022/04/20 14:54:42;;;;;;;14.20;7.40;;;;;;;;;;5031562;28;20053;-69
2022/04/20 14:57:09;;;;;;;14.27;8.00;;;;;;;;;;5031262;28;20055;-67
2022/04/20 14:59:35;;;;;;;;;;;;;;;;;;5030368;28;20080;-71
2022/04/20 15:02:04;;;;;;;14.15;7.63;;;;;;;;;;5031106;28;19921;-68
2022/04/20 15:04:31;;;;;;;16.63;7.55;;;;;;;;;;5030290;28;20495;-66
2022/04/20 15:06:57;;;;;;;15.55;8.25;;;;;;;;;;5030669;28;20383;-66
2022/04/20 15:09:25;;;;;;;15.68;7.32;;;;;;;;;;5029199;28;20053;-67
2022/04/20 15:11:51;;;;;;;14.65;7.35;;;;;;;;;;5029848;28;20049;-71
2022/04/20 15:14:17;;;;;;;;;;;;;;;;;;5031503;28;20053;-69
2022/04/20 15:16:45;;;;;;;15.10;7.75;;;;;;;;;;5031159;28;19921;-67
2022/04/20 15:19:11;;;;;;;14.25;8.07;;;;;;;;;;5030859;28;20076;-65
2022/04/20 15:21:38;;;;;;;16.35;7.95;;;;;;;;;;5029587;28;20097;-82
2022/04/20 15:24:04;;;;;;;14.07;7.32;;;;;;;;;;5031064;28;20135;-68
2022/04/20 15:26:30;;;;;;;14.60;7.45;;;;;;;;;;5030810;28;20144;-69
2022/04/20 15:28:57;;;;;;;15.48;8.00;;;;;;;;;;5029367;28;20259;-68
2022/04/20 15:31:23;;;;;;;;;;;;;;;;;;5030106;28;20164;-70